Time;durP1;ratioP1;P1;durP2;ratioP2;P2;SDS_P1;SDS_P2;PMS_P1;PMS_P2;Temp;Humidity;BMP_temperature;BMP_pressure;BME280_temperature;BME280_humidity;BME280_pressure;Samples;Min_cycle;Max_cycle;Signal;HPM_P1;HPM_P2
2021/05/21 00:01:29;;;;;;;12.60;11.20;;;;;;;15.13;100.00;99848.53;5035808;28;20025;-70
2021/05/21 00:03:55;;;;;;;12.07;10.80;;;;;;;14.96;100.00;99805.50;5035718;28;20065;-71
2021/05/21 00:06:20;;;;;;;12.73;11.23;;;;;;;15.07;100.00;99818.34;5035585;28;20052;-70
2021/05/21 00:08:46;;;;;;;13.27;10.25;;;;;;;14.98;100.00;99814.88;5035726;28;20074;-71
2021/05/21 00:11:11;;;;;;;13.93;10.35;;;;;;;15.23;100.00;99843.91;5035599;28;20033;-71
2021/05/21 00:13:37;;;;;;;11.65;10.23;;;;;;;14.97;100.00;99815.03;5034572;28;20040;-71
2021/05/21 00:16:02;;;;;;;14.95;9.75;;;;;;;15.17;100.00;99839.28;5035570;28;20135;-71
2021/05/21 00:18:28;;;;;;;14.48;10.88;;;;;;;14.85;100.00;99828.56;5035604;28;20032;-71
2021/05/21 00:20:53;;;;;;;10.25;9.15;;;;;;;14.88;100.00;99825.59;5035409;28;20029;-71
2021/05/21 00:23:19;;;;;;;13.70;10.45;;;;;;;14.98;100.00;99827.25;5035071;28;20080;-71
2021/05/21 00:25:45;;;;;;;11.88;9.43;;;;;;;14.96;100.00;99826.59;5035387;28;20025;-71
2021/05/21 00:28:10;;;;;;;12.40;8.95;;;;;;;14.74;100.00;99791.94;5035510;28;20047;-71
2021/05/21 00:30:36;;;;;;;13.40;9.82;;;;;;;14.82;100.00;99805.16;5035291;28;20025;-71
2021/05/21 00:33:01;;;;;;;19.55;10.73;;;;;;;14.89;100.00;99802.69;5035585;28;20033;-71
2021/05/21 00:35:27;;;;;;;15.43;9.10;;;;;;;14.82;100.00;99794.59;5035237;28;20017;-71
2021/05/21 00:37:53;;;;;;;11.77;8.23;;;;;;;15.07;100.00;99832.34;5035342;28;20021;-71
2021/05/21 00:40:21;;;;;;;10.82;8.77;;;;;;;14.90;100.00;99800.88;5035327;28;20029;-71
2021/05/21 00:42:46;;;;;;;10.18;8.57;;;;;;;15.13;100.00;99830.06;5035228;28;20465;-70
2021/05/21 00:45:12;;;;;;;11.40;9.10;;;;;;;15.13;100.00;99824.78;5035025;28;20029;-71
2021/05/21 00:47:37;;;;;;;11.82;8.73;;;;;;;14.94;100.00;99808.28;5035312;28;20033;-70
2021/05/21 00:50:03;;;;;;;8.68;7.68;;;;;;;14.99;100.00;99831.56;5034963;28;20026;-70
2021/05/21 00:52:32;;;;;;;8.15;6.13;;;;;;;14.99;100.00;99815.72;5034942;28;20504;-70
2021/05/21 00:54:58;;;;;;;9.13;6.97;;;;;;;15.03;100.00;99814.41;5033107;28;20048;-70
2021/05/21 00:57:23;;;;;;;9.13;7.50;;;;;;;15.07;100.00;99819.16;5034907;28;20489;-70
2021/05/21 00:59:49;;;;;;;8.52;7.05;;;;;;;14.86;100.00;99806.47;5034696;28;20022;-70
2021/05/21 01:02:16;;;;;;;8.70;7.53;;;;;;;14.79;100.00;99797.56;5034910;28;20029;-70
2021/05/21 01:04:41;;;;;;;9.65;7.65;;;;;;;15.00;100.00;99827.91;5034575;28;20021;-70
2021/05/21 01:07:08;;;;;;;9.68;7.65;;;;;;;14.98;100.00;99829.88;5034654;28;20036;-70
2021/05/21 01:09:34;;;;;;;11.05;6.95;;;;;;;14.98;100.00;99811.41;5033513;28;20099;-69
2021/05/21 01:12:00;;;;;;;7.97;6.75;;;;;;;15.05;100.00;99812.41;5034583;28;20090;-70
2021/05/21 01:14:26;;;;;;;9.15;6.93;;;;;;;15.08;100.00;99818.16;5034473;28;20029;-70
2021/05/21 01:16:52;;;;;;;8.88;7.50;;;;;;;15.11;100.00;99817.00;5033215;28;20025;-70
2021/05/21 01:19:17;;;;;;;10.70;6.93;;;;;;;15.17;100.00;99824.28;5034388;28;20053;-70
2021/05/21 01:21:43;;;;;;;9.38;7.55;;;;;;;15.00;100.00;99804.97;5034017;28;20041;-70
2021/05/21 01:24:09;;;;;;;10.65;7.70;;;;;;;15.07;100.00;99810.44;5034378;28;20473;-70
2021/05/21 01:26:36;;;;;;;9.65;8.20;;;;;;;14.83;100.00;99785.69;5034303;28;20063;-70
2021/05/21 01:29:02;;;;;;;9.57;7.20;;;;;;;15.07;100.00;99826.25;5034220;28;20040;-70
2021/05/21 01:31:28;;;;;;;9.23;7.40;;;;;;;14.81;100.00;99802.66;5032971;28;20025;-70
2021/05/21 01:33:54;;;;;;;10.68;7.72;;;;;;;14.98;100.00;99835.16;5034413;28;20506;-70
2021/05/21 01:36:20;;;;;;;9.48;7.65;;;;;;;14.80;100.00;99832.69;5032864;28;20029;-70
2021/05/21 01:39:01;;;;;;;10.35;7.85;;;;;;;14.63;100.00;99797.53;5034140;28;20542;-70
2021/05/21 01:41:28;;;;;;;9.70;7.22;;;;;;;14.92;100.00;99826.09;5034010;28;20034;-70
2021/05/21 01:43:55;;;;;;;10.85;8.25;;;;;;;14.73;100.00;99792.13;5032655;28;20026;-70
2021/05/21 01:46:21;;;;;;;11.30;7.15;;;;;;;14.71;100.00;99794.91;5033990;28;20036;-70
2021/05/21 01:48:47;;;;;;;10.55;7.80;;;;;;;14.55;100.00;99790.47;5032630;28;20033;-70
2021/05/21 01:51:13;;;;;;;9.20;8.20;;;;;;;14.64;100.00;99821.09;5033996;28;20029;-70
2021/05/21 01:53:39;;;;;;;10.05;8.52;;;;;;;14.58;100.00;99834.16;5033718;28;20037;-70
2021/05/21 01:56:06;;;;;;;12.15;8.70;;;;;;;14.27;100.00;99795.13;5033675;28;20017;-70
2021/05/21 01:58:32;;;;;;;14.85;9.20;;;;;;;14.37;100.00;99832.72;5032419;28;20025;-70
2021/05/21 02:00:57;;;;;;;10.95;9.52;;;;;;;14.40;100.00;99837.66;5033843;28;20031;-70
2021/05/21 02:03:23;;;;;;;9.95;8.68;;;;;;;14.31;100.00;99799.13;5033580;28;20072;-70
2021/05/21 02:05:48;;;;;;;11.98;8.85;;;;;;;14.39;100.00;99798.31;5033257;28;20369;-70
2021/05/21 02:08:14;;;;;;;9.25;8.23;;;;;;;14.60;100.00;99832.97;5032932;28;20029;-69
2021/05/21 02:10:39;;;;;;;11.20;9.13;;;;;;;14.56;100.00;99825.56;5033392;28;20022;-70
2021/05/21 02:13:05;;;;;;;9.38;8.38;;;;;;;14.48;100.00;99796.50;5033342;28;20455;-70
2021/05/21 02:15:30;;;;;;;11.57;9.05;;;;;;;14.40;100.00;99800.75;5033375;28;20104;-70
2021/05/21 02:17:56;;;;;;;11.65;8.80;;;;;;;14.55;100.00;99830.00;5032078;28;20439;-70
2021/05/21 02:20:21;;;;;;;12.07;8.30;;;;;;;14.45;100.00;99799.47;5033417;28;20032;-70
2021/05/21 02:22:47;;;;;;;10.82;9.15;;;;;;;14.37;100.00;99793.19;5033345;28;20045;-69
2021/05/21 02:25:14;;;;;;;13.32;8.85;;;;;;;14.49;100.00;99803.44;5031614;28;20025;-70
2021/05/21 02:27:40;;;;;;;11.23;8.98;;;;;;;14.49;100.00;99792.88;5033318;28;20033;-70
2021/05/21 02:30:09;;;;;;;10.48;8.85;;;;;;;14.55;100.00;99785.19;5032953;28;20560;-70
2021/05/21 02:32:34;;;;;;;18.52;9.15;;;;;;;14.63;100.00;99787.00;5033327;28;20037;-70
2021/05/21 02:35:00;;;;;;;15.77;8.80;;;;;;;14.74;100.00;99796.41;5033045;28;20560;-70
2021/05/21 02:37:25;;;;;;;10.55;8.57;;;;;;;14.65;100.00;99777.13;5032989;28;20412;-70
2021/05/21 02:39:51;;;;;;;13.93;9.80;;;;;;;14.56;100.00;99805.28;5033145;28;20052;-69
2021/05/21 02:42:16;;;;;;;14.35;9.70;;;;;;;14.62;100.00;99814.38;5032826;28;20420;-70
2021/05/21 02:44:42;;;;;;;12.70;8.73;;;;;;;14.43;100.00;99775.06;5033000;28;20126;-70
2021/05/21 02:47:07;;;;;;;14.30;8.25;;;;;;;14.43;100.00;99773.25;5031647;28;20033;-70
2021/05/21 02:49:34;;;;;;;11.50;8.20;;;;;;;14.72;100.00;99806.31;5031566;28;20021;-69
2021/05/21 02:52:00;;;;;;;22.08;10.02;;;;;;;14.52;100.00;99771.50;5032691;28;20026;-69
2021/05/21 02:54:25;;;;;;;14.60;9.15;;;;;;;14.67;100.00;99801.50;5032579;28;20033;-69
2021/05/21 02:56:51;;;;;;;12.98;8.80;;;;;;;14.64;100.00;99791.28;5032707;28;20037;-69
2021/05/21 02:59:16;;;;;;;11.43;8.27;;;;;;;14.72;100.00;99798.41;5032673;28;20029;-69
2021/05/21 03:01:42;;;;;;;10.70;7.93;;;;;;;14.75;100.00;99796.25;5032584;28;20037;-69
2021/05/21 03:04:08;;;;;;;207.23;177.60;;;;;;;14.66;100.00;99810.41;5032565;28;20053;-69
2021/05/21 03:06:33;;;;;;;22.60;16.30;;;;;;;14.66;100.00;99813.03;5031001;28;20025;-69
2021/05/21 03:08:59;;;;;;;12.07;9.05;;;;;;;14.41;100.00;99791.06;5032421;28;20032;-69
2021/05/21 03:11:24;;;;;;;11.93;9.18;;;;;;;14.37;100.00;99824.81;5032458;28;20029;-69
2021/05/21 03:13:49;;;;;;;13.93;8.93;;;;;;;14.21;100.00;99808.13;5032741;28;20042;-69
2021/05/21 03:16:15;;;;;;;12.57;9.90;;;;;;;14.12;100.00;99825.72;5032496;28;20095;-69
2021/05/21 03:18:40;;;;;;;19.02;15.35;;;;;;;14.15;100.00;99834.16;5032146;28;20025;-69
2021/05/21 03:21:06;;;;;;;13.32;9.00;;;;;;;13.91;100.00;99818.25;5032327;28;20481;-69
2021/05/21 03:23:31;;;;;;;12.18;8.98;;;;;;;13.63;100.00;99822.84;5032413;28;20088;-69
2021/05/21 03:25:57;;;;;;;11.43;9.40;;;;;;;13.55;100.00;99830.72;5032266;28;20022;-69
2021/05/21 03:28:23;;;;;;;12.15;9.38;;;;;;;13.52;100.00;99823.13;5031198;28;20065;-69
2021/05/21 03:30:49;;;;;;;11.43;9.30;;;;;;;13.57;100.00;99826.13;5031271;28;20025;-69
2021/05/21 03:33:15;;;;;;;14.57;10.10;;;;;;;13.71;100.00;99846.63;5032462;28;20033;-69
2021/05/21 03:35:41;;;;;;;11.43;9.30;;;;;;;13.71;100.00;99862.41;5032138;28;20405;-69
2021/05/21 03:38:07;;;;;;;12.65;9.70;;;;;;;13.66;100.00;99852.34;5032083;28;20044;-69
2021/05/21 03:40:34;;;;;;;14.05;9.38;;;;;;;13.63;100.00;99838.66;5032413;28;20443;-69
2021/05/21 03:43:00;;;;;;;12.82;9.23;;;;;;;13.80;100.00;99855.38;5031976;28;20515;-69
2021/05/21 03:45:25;;;;;;;12.20;9.95;;;;;;;13.62;100.00;99837.00;5031959;28;20025;-69
2021/05/21 03:47:51;;;;;;;10.57;9.48;;;;;;;13.66;100.00;99815.47;5031977;28;20135;-69
2021/05/21 03:50:19;;;;;;;11.93;9.13;;;;;;;14.03;100.00;99866.19;5030784;28;20037;-69
2021/05/21 03:52:45;;;;;;;16.15;9.43;;;;;;;14.10;100.00;99875.94;5030795;28;20055;-69
2021/05/21 03:55:11;;;;;;;11.98;7.88;;;;;;;14.17;100.00;99869.09;5031024;28;20039;-69
2021/05/21 03:57:38;;;;;;;11.05;7.07;;;;;;;14.25;100.00;99870.09;5032374;28;20120;-69
2021/05/21 04:00:06;;;;;;;8.73;7.13;;;;;;;14.02;100.00;99832.94;5030734;28;20025;-69
2021/05/21 04:02:31;;;;;;;8.65;6.32;;;;;;;14.24;100.00;99873.69;5032054;28;20461;-69
2021/05/21 04:04:57;;;;;;;7.43;5.72;;;;;;;14.26;100.00;99867.28;5031980;28;20079;-69
2021/05/21 04:07:22;;;;;;;7.57;5.70;;;;;;;14.22;100.00;99860.69;5031583;28;20038;-69
2021/05/21 04:09:48;;;;;;;7.93;5.40;;;;;;;14.14;100.00;99837.78;5031963;28;20057;-69
2021/05/21 04:12:13;;;;;;;6.60;5.20;;;;;;;14.13;100.00;99840.56;5030668;28;20056;-69
2021/05/21 04:14:39;;;;;;;6.57;5.32;;;;;;;14.30;100.00;99886.25;5031898;28;20396;-69
2021/05/21 04:17:04;;;;;;;7.03;4.80;;;;;;;14.03;100.00;99840.66;5032093;28;20087;-69
2021/05/21 04:19:29;;;;;;;6.28;4.72;;;;;;;14.07;100.00;99862.25;5031888;28;20029;-69
2021/05/21 04:21:55;;;;;;;6.50;5.10;;;;;;;14.25;100.00;99889.38;5031488;28;20053;-69
2021/05/21 04:24:20;;;;;;;6.03;4.15;;;;;;;13.97;100.00;99877.34;5031811;28;20483;-69
2021/05/21 04:26:46;;;;;;;5.80;4.35;;;;;;;14.14;100.00;99914.19;5031796;28;20036;-69
2021/05/21 04:29:11;;;;;;;6.05;4.25;;;;;;;13.96;100.00;99886.25;5031722;28;20053;-69
2021/05/21 04:31:37;;;;;;;5.88;4.20;;;;;;;14.18;100.00;99925.25;5035014;28;20404;-70
2021/05/21 04:34:03;;;;;;;6.95;4.25;;;;;;;13.90;100.00;99891.19;5035335;28;20022;-70
2021/05/21 04:36:28;;;;;;;5.13;4.00;;;;;;;14.05;100.00;99923.03;5035244;28;20116;-70
2021/05/21 04:38:53;;;;;;;7.25;4.43;;;;;;;14.09;100.00;99919.09;5035271;28;20022;-70
2021/05/21 04:41:19;;;;;;;5.10;3.90;;;;;;;14.09;100.00;99928.81;5035231;28;20495;-69
2021/05/21 04:43:46;;;;;;;7.43;4.30;;;;;;;13.96;100.00;99918.69;5035229;28;20095;-70
2021/05/21 04:46:12;;;;;;;6.35;4.10;;;;;;;13.83;100.00;99902.47;5033847;28;20036;-70
2021/05/21 04:48:37;;;;;;;5.00;3.10;;;;;;;13.98;100.00;99939.63;5035148;28;20117;-70
2021/05/21 04:51:04;;;;;;;6.07;3.70;;;;;;;13.81;100.00;99910.53;5034930;28;20388;-70
2021/05/21 04:53:29;;;;;;;6.72;3.55;;;;;;;13.97;100.00;99932.69;5034907;28;20029;-69
2021/05/21 04:55:55;;;;;;;5.57;3.88;;;;;;;13.90;100.00;99924.56;5034931;28;20546;-70
2021/05/21 04:58:20;;;;;;;5.22;3.42;;;;;;;14.06;100.00;99955.47;5034943;28;20036;-69
2021/05/21 05:00:46;;;;;;;5.53;3.45;;;;;;;13.95;100.00;99951.28;5034828;28;20037;-69
2021/05/21 05:03:17;;;;;;;5.63;3.25;;;;;;;13.95;100.00;99938.13;5034660;28;20048;-70
2021/05/21 05:05:43;;;;;;;5.70;3.90;;;;;;;14.13;100.00;99959.13;5034657;28;20026;-69
2021/05/21 05:08:11;;;;;;;6.18;3.53;;;;;;;13.96;100.00;99938.94;5033424;28;20041;-70
2021/05/21 05:10:37;;;;;;;6.22;3.75;;;;;;;13.89;100.00;99929.03;5034915;28;20035;-70
2021/05/21 05:13:02;;;;;;;6.18;4.03;;;;;;;14.17;100.00;99965.72;5034650;28;20022;-70
2021/05/21 05:15:32;;;;;;;5.10;3.97;;;;;;;13.98;100.00;99937.81;5034578;28;20037;-70
2021/05/21 05:17:57;;;;;;;5.70;4.20;;;;;;;14.14;100.00;99969.53;5034491;28;20021;-70
2021/05/21 05:20:23;;;;;;;6.38;3.75;;;;;;;13.98;100.00;99937.00;5034737;28;20374;-70
2021/05/21 05:22:51;;;;;;;6.55;4.72;;;;;;;14.17;100.00;99978.91;5033937;28;20148;-69
2021/05/21 05:25:17;;;;;;;8.52;4.35;;;;;;;14.02;100.00;99949.69;5034246;28;20029;-69
2021/05/21 05:27:42;;;;;;;10.38;5.28;;;;;;;14.01;100.00;99940.13;5033197;28;20457;-69
2021/05/21 05:30:09;;;;;;;12.13;4.90;;;;;;;14.10;100.00;99948.91;5034404;28;20116;-69
2021/05/21 05:32:34;;;;;;;20.05;5.47;;;;;;;14.26;100.00;99953.44;5034239;28;20041;-70
2021/05/21 05:35:00;;;;;;;21.55;5.20;;;;;;;14.09;100.00;99936.72;5034232;28;20082;-69
2021/05/21 05:37:25;;;;;;;20.08;5.85;;;;;;;14.09;100.00;99940.16;5034158;28;20109;-70
2021/05/21 05:39:51;;;;;;;14.05;5.35;;;;;;;14.21;100.00;99953.94;5034101;28;20029;-70
2021/05/21 05:42:16;;;;;;;12.35;4.32;;;;;;;14.22;100.00;99950.28;5032669;28;20025;-70
2021/05/21 05:44:42;;;;;;;15.38;4.65;;;;;;;14.26;100.00;99963.97;5033864;28;20083;-70
2021/05/21 05:47:07;;;;;;;15.32;4.82;;;;;;;14.31;100.00;99970.44;5034189;28;20091;-69
2021/05/21 05:56:16;;;;;;;8.80;4.30;;;;;;;14.45;100.00;99970.84;5034031;28;20131;-70
2021/05/21 05:58:41;;;;;;;8.40;3.38;;;;;;;14.29;100.00;99956.59;5033747;28;20464;-70
2021/05/21 06:01:07;;;;;;;10.10;4.03;;;;;;;14.59;100.00;99994.84;5033640;28;20048;-70
2021/05/21 06:03:32;;;;;;;6.07;3.92;;;;;;;14.55;100.00;99976.84;5033487;28;20022;-69
2021/05/21 06:05:58;;;;;;;5.68;3.35;;;;;;;14.55;100.00;99953.13;5033273;28;20083;-69
2021/05/21 06:08:24;;;;;;;5.82;3.85;;;;;;;14.68;100.00;99971.97;5033721;28;20079;-70
2021/05/21 06:10:51;;;;;;;4.65;3.38;;;;;;;14.80;100.00;99980.41;5033533;28;20029;-69
2021/05/21 06:13:17;;;;;;;21.20;14.98;;;;;;;14.95;100.00;99999.94;5033697;28;20029;-69
2021/05/21 06:15:42;;;;;;;7.80;4.45;;;;;;;14.80;100.00;99970.69;5032096;28;20090;-70
2021/05/21 06:18:08;;;;;;;52.83;47.53;;;;;;;14.83;100.00;99970.34;5033339;28;20052;-70
2021/05/21 06:20:34;;;;;;;7.10;4.00;;;;;;;14.55;100.00;99914.41;5033237;28;20159;-70
2021/05/21 06:23:25;;;;;;;5.95;3.15;;;;;;;15.06;100.00;99990.88;5026928;28;20053;-70
2021/05/21 06:28:19;;;;;;;5.63;3.63;;;;;;;14.98;100.00;99961.81;5018902;28;20108;-71
2021/05/21 06:30:45;;;;;;;7.63;4.18;;;;;;;15.06;100.00;99964.50;5022984;28;20030;-70
2021/05/21 06:33:10;;;;;;;7.53;3.50;;;;;;;15.18;100.00;99973.72;5015584;28;20035;-70
2021/05/21 06:35:35;;;;;;;11.20;3.75;;;;;;;15.22;100.00;99967.16;5023041;28;20030;-70
2021/05/21 06:38:01;;;;;;;7.55;3.50;;;;;;;15.37;100.00;99987.63;5011567;28;20559;-70
2021/05/21 06:40:26;;;;;;;11.18;4.35;;;;;;;15.26;100.00;99963.19;5019464;28;20490;-70
2021/05/21 06:42:52;;;;;;;7.15;3.67;;;;;;;15.42;100.00;99986.13;5022218;28;20037;-70
2021/05/21 06:45:17;;;;;;;5.82;3.05;;;;;;;15.57;100.00;100004.81;5020224;28;20025;-71
2021/05/21 06:47:43;;;;;;;5.38;3.65;;;;;;;15.60;100.00;100007.13;5014001;28;20026;-71
2021/05/21 06:50:10;;;;;;;5.85;3.53;;;;;;;15.44;100.00;99978.06;5023966;28;20147;-71
2021/05/21 06:52:35;;;;;;;4.70;3.08;;;;;;;15.54;100.00;99982.19;5012819;28;20464;-71
2021/05/21 06:55:01;;;;;;;4.00;2.45;;;;;;;15.56;100.00;99982.03;5011300;28;20499;-71
2021/05/21 06:57:27;;;;;;;5.43;2.72;;;;;;;15.49;100.00;99984.53;5021702;28;20036;-70
2021/05/21 06:59:52;;;;;;;4.10;2.80;;;;;;;15.63;100.00;100014.72;5018754;28;20043;-71
2021/05/21 07:02:19;;;;;;;4.70;2.78;;;;;;;15.68;100.00;100007.16;5020110;28;20122;-70
2021/05/21 07:04:44;;;;;;;4.97;2.80;;;;;;;15.74;100.00;100024.16;5013126;28;20077;-71
2021/05/21 07:07:10;;;;;;;4.13;2.78;;;;;;;15.78;100.00;100025.50;5019563;28;20560;-71
2021/05/21 07:09:35;;;;;;;4.75;3.40;;;;;;;15.69;100.00;100014.09;5014350;28;20038;-71
2021/05/21 07:12:01;;;;;;;4.57;2.28;;;;;;;15.62;100.00;100013.06;5018400;28;20028;-72
2021/05/21 07:14:26;;;;;;;4.22;2.67;;;;;;;15.76;100.00;100023.03;5008610;28;20033;-71
2021/05/21 07:16:52;;;;;;;4.68;2.60;;;;;;;15.40;100.00;100011.91;5017925;28;20129;-70
2021/05/21 07:19:18;;;;;;;4.15;2.33;;;;;;;15.53;100.00;100040.47;5017657;28;20076;-70
2021/05/21 07:21:46;;;;;;;4.90;2.30;;;;;;;15.50;100.00;100040.78;5011325;28;20516;-71
2021/05/21 07:24:12;;;;;;;3.08;1.75;;;;;;;15.15;100.00;99999.63;5018839;28;20029;-70
2021/05/21 07:26:38;;;;;;;3.58;1.73;;;;;;;15.20;100.00;100015.81;5010974;28;20034;-70
2021/05/21 07:29:04;;;;;;;2.47;1.55;;;;;;;15.32;100.00;100047.03;5018575;28;20088;-69
2021/05/21 07:31:30;;;;;;;3.20;1.60;;;;;;;15.35;100.00;100028.25;5012963;28;20065;-69
2021/05/21 07:33:58;;;;;;;3.53;1.88;;;;;;;15.55;100.00;100041.13;5022755;28;20026;-70
2021/05/21 07:36:25;;;;;;;2.40;1.50;;;;;;;15.38;100.00;100013.03;5021700;28;20437;-67
2021/05/21 07:38:51;;;;;;;2.72;1.92;;;;;;;15.47;100.00;100009.44;5016994;28;20079;-69
2021/05/21 07:41:22;;;;;;;4.93;1.88;;;;;;;15.58;100.00;100032.88;5009625;28;20034;-70
2021/05/21 07:43:49;;;;;;;3.67;1.83;;;;;;;15.66;100.00;100030.28;5020171;28;20458;-70
2021/05/21 07:46:15;;;;;;;2.85;1.83;;;;;;;15.73;100.00;100020.72;5021300;28;20030;-69
2021/05/21 07:48:44;;;;;;;2.63;1.63;;;;;;;15.94;100.00;100016.75;5013024;28;20096;-69
2021/05/21 07:51:09;;;;;;;6.53;2.00;;;;;;;15.86;100.00;100004.34;5030600;28;20036;-70
2021/05/21 07:53:35;;;;;;;2.78;1.60;;;;;;;16.28;100.00;100064.94;5016376;28;20022;-70
2021/05/21 07:56:04;;;;;;;1.50;1.30;;;;;;;16.38;100.00;100062.13;5013513;28;20022;-69
2021/05/21 07:58:30;;;;;;;4.65;2.03;;;;;;;16.19;100.00;100021.00;5015982;28;20084;-69
2021/05/21 08:00:56;;;;;;;3.60;1.70;;;;;;;16.26;100.00;100048.41;5019139;28;20021;-69
2021/05/21 08:03:21;;;;;;;3.05;1.92;;;;;;;16.24;100.00;100060.97;5009207;28;20088;-69
2021/05/21 08:05:48;;;;;;;3.30;1.67;;;;;;;16.47;100.00;100092.03;5019805;28;20029;-70
2021/05/21 08:08:21;;;;;;;2.85;1.88;;;;;;;16.61;100.00;100098.47;5016679;28;20045;-70
2021/05/21 08:10:51;;;;;;;3.80;2.30;;;;;;;16.55;100.00;100062.09;5022601;28;20034;-70
2021/05/21 08:13:17;;;;;;;2.58;2.00;;;;;;;16.81;100.00;100090.97;5034218;28;20052;-69
2021/05/21 08:15:42;;;;;;;2.83;1.95;;;;;;;16.35;100.00;100030.72;5024791;28;20034;-69
2021/05/21 08:18:08;;;;;;;2.50;1.50;;;;;;;16.75;100.00;100090.66;5013999;28;20567;-70
2021/05/21 08:20:34;;;;;;;3.97;2.00;;;;;;;16.84;100.00;100114.44;5014674;28;20076;-69
2021/05/21 08:22:59;;;;;;;2.72;1.90;;;;;;;16.88;100.00;100111.31;5021960;28;20053;-70
2021/05/21 08:25:25;;;;;;;2.90;2.00;;;;;;;17.03;100.00;100114.06;5013711;28;20029;-70
2021/05/21 08:27:53;;;;;;;3.75;1.60;;;;;;;16.93;100.00;100090.44;5022172;28;20033;-69
2021/05/21 08:30:19;;;;;;;3.03;1.67;;;;;;;17.30;100.00;100131.34;5018540;28;20026;-69
2021/05/21 08:32:46;;;;;;;2.47;1.60;;;;;;;17.35;100.00;100122.88;5022644;28;20515;-69
2021/05/21 08:35:11;;;;;;;2.63;1.52;;;;;;;17.33;100.00;100119.56;5020669;28;20088;-69
2021/05/21 08:37:37;;;;;;;3.30;2.08;;;;;;;17.31;100.00;100113.63;5014001;28;20478;-68
2021/05/21 08:40:04;;;;;;;3.33;1.75;;;;;;;17.47;100.00;100129.44;5017898;28;20033;-69
2021/05/21 08:42:31;;;;;;;2.60;1.60;;;;;;;17.27;100.00;100101.72;5019062;28;20120;-68
2021/05/21 08:44:57;;;;;;;4.32;1.67;;;;;;;17.37;100.00;100115.56;5031291;28;20029;-68
2021/05/21 08:47:23;;;;;;;2.72;1.60;;;;;;;17.49;100.00;100135.38;5021765;28;20036;-69
2021/05/21 08:49:49;;;;;;;5.43;1.90;;;;;;;17.51;100.00;100117.47;5019980;28;20029;-66
2021/05/21 08:52:16;;;;;;;2.60;1.50;;;;;;;17.38;100.00;100139.25;5018084;28;20496;-68
2021/05/21 08:54:43;;;;;;;3.28;1.42;;;;;;;17.26;100.00;100124.72;5014532;28;20052;-68
2021/05/21 08:57:13;;;;;;;2.92;1.48;;;;;;;17.58;100.00;100126.41;5021560;28;20035;-69
2021/05/21 08:59:38;;;;;;;3.20;2.28;;;;;;;17.59;100.00;100098.91;5017014;28;20485;-69
2021/05/21 09:02:07;;;;;;;4.68;2.00;;;;;;;18.03;100.00;100135.41;5023914;28;20048;-68
2021/05/21 09:04:49;;;;;;;3.45;1.75;;;;;;;18.13;100.00;100119.25;5013055;28;20030;-70
2021/05/21 09:07:25;;;;;;;3.83;1.98;;;;;;;18.19;100.00;100126.50;5015436;28;20064;-70
2021/05/21 09:09:52;;;;;;;4.05;2.15;;;;;;;18.02;100.00;100107.25;5017927;28;20044;-68
2021/05/21 09:12:18;;;;;;;5.28;2.22;;;;;;;17.97;100.00;100127.34;5017290;28;20053;-68
2021/05/21 09:15:15;;;;;;;4.63;2.20;;;;;;;17.95;100.00;100127.50;5016311;28;20041;-69
2021/05/21 09:17:56;;;;;;;3.90;2.10;;;;;;;18.03;100.00;100119.50;5018371;28;20121;-68
2021/05/21 09:20:26;;;;;;;5.50;2.50;;;;;;;18.13;100.00;100119.25;5020082;28;20033;-69
2021/05/21 09:23:06;;;;;;;4.07;1.70;;;;;;;18.13;100.00;100090.09;5022052;28;20511;-68
2021/05/21 09:25:41;;;;;;;3.88;2.45;;;;;;;18.24;100.00;100088.84;5010456;28;20034;-68
2021/05/21 09:28:41;;;;;;;3.47;2.03;;;;;;;18.56;100.00;100123.03;5018418;28;20037;-70
2021/05/21 09:31:24;;;;;;;2.72;1.83;;;;;;;18.77;100.00;100122.34;5018893;28;20017;-69
2021/05/21 09:33:54;;;;;;;3.03;1.65;;;;;;;18.82;100.00;100124.44;5015669;28;20385;-70
2021/05/21 09:36:35;;;;;;;2.80;1.70;;;;;;;18.59;100.00;100117.31;5020907;28;20080;-68
2021/05/21 09:39:04;;;;;;;6.40;2.28;;;;;;;18.61;100.00;100115.34;5018093;28;20037;-67
2021/05/21 09:41:30;;;;;;;3.22;2.08;;;;;;;18.72;100.00;100113.25;5018576;28;20401;-69
2021/05/21 09:43:59;;;;;;;7.90;3.60;;;;;;;19.02;100.00;100119.41;5012544;28;20033;-68
2021/05/21 09:46:37;;;;;;;6.20;3.28;;;;;;;19.05;100.00;100111.88;5018781;28;20116;-68
2021/05/21 09:49:26;;;;;;;4.05;2.70;;;;;;;19.07;100.00;100125.81;5034081;28;20057;-68
2021/05/21 09:51:57;;;;;;;7.25;2.60;;;;;;;19.10;100.00;100120.16;5024368;28;20025;-68
2021/05/21 09:54:23;;;;;;;3.28;2.13;;;;;;;19.10;100.00;100119.28;5021601;28;20283;-68
2021/05/21 09:57:01;;;;;;;3.13;1.95;;;;;;;18.99;100.00;100122.44;5018611;28;20033;-70
2021/05/21 09:59:42;;;;;;;4.07;2.50;;;;;;;18.68;100.00;100093.38;5016707;28;20489;-69
2021/05/21 10:02:22;;;;;;;3.45;1.98;;;;;;;18.54;100.00;100127.69;5010811;28;20524;-69
2021/05/21 10:04:48;;;;;;;3.55;2.20;;;;;;;18.62;100.00;100132.06;5017942;28;20030;-68
2021/05/21 10:07:14;;;;;;;3.58;2.33;;;;;;;18.58;100.00;100121.00;5017168;28;20036;-68
2021/05/21 10:09:44;;;;;;;4.63;2.70;;;;;;;18.54;100.00;100101.16;5013130;28;20878;-69
2021/05/21 10:12:10;;;;;;;2.85;1.92;;;;;;;18.76;100.00;100109.22;5012000;28;20152;-69
2021/05/21 10:14:36;;;;;;;3.47;2.03;;;;;;;18.84;100.00;100130.41;5017944;28;20041;-68
2021/05/21 10:17:03;;;;;;;4.50;2.50;;;;;;;18.53;100.00;100107.47;5014743;28;20059;-69
2021/05/21 10:19:29;;;;;;;4.93;2.47;;;;;;;18.56;100.00;100138.94;5023124;28;20037;-68
2021/05/21 10:21:55;;;;;;;3.70;2.10;;;;;;;18.54;100.00;100124.22;5017584;28;20038;-68
2021/05/21 10:24:23;;;;;;;2.85;2.05;;;;;;;18.54;100.00;100137.47;5016137;28;20026;-68
2021/05/21 10:26:53;;;;;;;3.80;2.33;;;;;;;18.39;100.00;100126.81;5011973;28;20114;-71
2021/05/21 10:29:24;;;;;;;2.85;1.88;;;;;;;18.29;100.00;100128.88;5022276;28;20032;-68
2021/05/21 10:31:52;;;;;;;5.53;2.15;;;;;;;18.34;100.00;100153.88;5023834;28;20044;-69
2021/05/21 10:34:22;;;;;;;3.70;2.15;;;;;;;18.63;100.00;100176.22;5017545;28;20037;-68
2021/05/21 10:36:49;;;;;;;3.47;2.42;;;;;;;18.70;100.00;100176.31;5017895;28;20409;-70
2021/05/21 10:39:20;;;;;;;3.33;2.20;;;;;;;18.58;100.00;100142.22;5027194;28;20647;-69
2021/05/21 10:41:56;;;;;;;4.50;2.50;;;;;;;18.91;100.00;100187.06;5021880;28;20029;-68
2021/05/21 10:44:29;;;;;;;4.70;2.17;;;;;;;18.88;100.00;100152.91;5017668;28;20029;-69
2021/05/21 10:47:16;;;;;;;3.72;2.05;;;;;;;19.27;100.00;100192.50;5011797;28;20096;-68
2021/05/21 10:50:02;;;;;;;4.57;2.30;;;;;;;18.94;100.00;100146.88;5019598;28;20052;-68
2021/05/21 10:52:59;;;;;;;10.45;8.88;;;;;;;18.92;100.00;100182.59;5010528;28;20042;-69
2021/05/21 10:56:02;;;;;;;5.10;1.80;;;;;;;18.94;100.00;100193.84;5030998;28;20037;-69
2021/05/21 10:58:31;;;;;;;4.13;1.70;;;;;;;18.58;100.00;100150.19;4985269;28;20596;-68
2021/05/21 11:01:15;;;;;;;2.40;1.60;;;;;;;18.29;100.00;100115.63;5010132;28;20060;-69
2021/05/21 11:04:01;;;;;;;3.20;1.80;;;;;;;18.76;100.00;100191.53;5021770;28;20038;-70
2021/05/21 11:06:29;;;;;;;2.03;1.50;;;;;;;18.94;100.00;100191.22;5023384;28;20811;-70
2021/05/21 11:09:04;;;;;;;1.70;1.40;;;;;;;18.78;100.00;100158.50;5009591;28;20041;-70
2021/05/21 11:11:54;;;;;;;4.53;1.48;;;;;;;19.09;100.00;100181.41;5018267;28;20022;-70
2021/05/21 11:14:23;;;;;;;2.17;1.40;;;;;;;19.06;100.00;100177.28;5018877;28;20022;-70
2021/05/21 11:16:54;;;;;;;1.50;1.25;;;;;;;19.05;100.00;100175.63;5011646;28;20034;-69
2021/05/21 11:19:21;;;;;;;3.67;1.60;;;;;;;19.31;100.00;100179.66;5017665;28;20083;-69
2021/05/21 11:21:50;;;;;;;1.50;1.20;;;;;;;19.11;100.00;100151.00;5015177;28;20076;-69
2021/05/21 11:24:16;;;;;;;2.25;1.45;;;;;;;19.13;100.00;100177.38;5022838;28;20534;-69
2021/05/21 11:26:42;;;;;;;2.30;1.27;;;;;;;19.03;100.00;100177.63;5015470;28;20038;-69
2021/05/21 11:29:08;;;;;;;2.45;1.42;;;;;;;18.88;100.00;100158.22;5012760;28;20022;-69
2021/05/21 11:31:37;;;;;;;3.25;1.45;;;;;;;19.14;100.00;100194.16;5021912;28;20076;-69